Time;durP1;ratioP1;P1;durP2;ratioP2;P2;SDS_P1;SDS_P2;PMS_P1;PMS_P2;Temp;Humidity;BMP_temperature;BMP_pressure;BME280_temperature;BME280_humidity;BME280_pressure;Samples;Min_cycle;Max_cycle;Signal;HPM_P1;HPM_P2
2022/05/11 00:00:29;;;;;;;3.60;2.97;;;;;;;;;;4995697;28;20061;-84
2022/05/11 00:02:55;;;;;;;5.90;3.00;;;;;;;;;;4977949;28;20570;-85
2022/05/11 00:05:20;;;;;;;6.35;3.10;;;;;;;;;;4978010;28;20038;-84
2022/05/11 00:07:45;;;;;;;5.28;3.00;;;;;;;;;;4995543;28;20411;-83
2022/05/11 00:10:12;;;;;;;6.88;2.90;;;;;;;;;;4995247;28;20483;-85
2022/05/11 00:12:43;;;;;;;4.20;2.90;;;;;;;;;;4978021;28;20100;-83
2022/05/11 00:15:11;;;;;;;4.47;2.80;;;;;;;;;;4993542;28;20034;-83
2022/05/11 00:17:37;;;;;;;4.97;3.25;;;;;;;;;;4997195;28;20049;-84
2022/05/11 00:20:04;;;;;;;4.05;3.20;;;;;;;;;;4982279;28;20034;-83
2022/05/11 00:22:29;;;;;;;6.40;2.90;;;;;;;;;;5000379;28;20114;-85
2022/05/11 00:24:55;;;;;;;5.05;3.20;;;;;;;;;;4982650;28;20066;-85
2022/05/11 00:27:20;;;;;;;5.55;3.10;;;;;;;;;;5000718;28;20026;-84
2022/05/11 00:29:47;;;;;;;5.53;3.10;;;;;;;;;;4983238;28;20038;-84
2022/05/11 00:32:12;;;;;;;4.38;3.05;;;;;;;;;;5001238;28;20173;-83
2022/05/11 00:34:38;;;;;;;5.22;3.05;;;;;;;;;;5001135;28;20085;-83
2022/05/11 00:37:04;;;;;;;4.05;3.15;;;;;;;;;;4983600;28;20491;-85
2022/05/11 00:39:29;;;;;;;5.55;3.22;;;;;;;;;;4984127;28;20030;-85
2022/05/11 00:41:55;;;;;;;5.03;2.78;;;;;;;;;;5000649;28;20041;-84
2022/05/11 00:44:20;;;;;;;4.95;3.30;;;;;;;;;;4984888;28;20038;-85
2022/05/11 00:46:57;;;;;;;4.18;3.28;;;;;;;;;;5004159;28;20113;-84
2022/05/11 00:49:34;;;;;;;5.00;3.20;;;;;;;;;;4997460;28;20074;-83
2022/05/11 00:52:14;;;;;;;5.05;3.08;;;;;;;;;;4980921;28;20092;-84
2022/05/11 00:54:50;;;;;;;5.32;3.20;;;;;;;;;;4998370;28;20037;-85
2022/05/11 00:57:22;;;;;;;4.30;3.65;;;;;;;;;;4997682;28;20674;-84
2022/05/11 00:59:51;;;;;;;6.63;3.38;;;;;;;;;;4998730;28;20034;-83
2022/05/11 01:02:19;;;;;;;5.70;3.33;;;;;;;;;;4980631;28;20132;-85
2022/05/11 01:04:45;;;;;;;5.20;3.10;;;;;;;;;;4998325;28;20043;-84
2022/05/11 01:07:13;;;;;;;4.03;3.17;;;;;;;;;;4999137;28;20034;-84
2022/05/11 01:09:40;;;;;;;6.85;3.42;;;;;;;;;;4998799;28;20042;-85
2022/05/11 01:12:10;;;;;;;3.97;3.35;;;;;;;;;;4999015;28;20116;-83
2022/05/11 01:14:39;;;;;;;5.82;3.22;;;;;;;;;;4998569;28;20045;-82
2022/05/11 01:17:05;;;;;;;7.40;3.60;;;;;;;;;;4981339;28;20026;-83
2022/05/11 01:19:33;;;;;;;4.93;3.50;;;;;;;;;;4999784;28;20100;-83
2022/05/11 01:22:31;;;;;;;6.47;3.85;;;;;;;;;;4999568;28;20047;-84
2022/05/11 01:24:57;;;;;;;8.40;3.15;;;;;;;;;;4982183;28;20042;-86
2022/05/11 01:27:44;;;;;;;6.85;3.30;;;;;;;;;;4982499;28;20110;-86
2022/05/11 01:30:12;;;;;;;7.35;3.20;;;;;;;;;;4966407;28;20064;-83
2022/05/11 01:32:40;;;;;;;5.60;3.47;;;;;;;;;;4999185;28;20089;-85
2022/05/11 01:35:38;;;;;;;4.78;3.40;;;;;;;;;;5000368;28;20040;-84
2022/05/11 01:38:07;;;;;;;3.97;3.20;;;;;;;;;;5001206;28;20075;-84
2022/05/11 01:40:33;;;;;;;6.60;3.40;;;;;;;;;;4984688;28;20037;-85
2022/05/11 01:42:58;;;;;;;5.22;3.10;;;;;;;;;;5001102;28;20034;-84
2022/05/11 01:45:24;;;;;;;5.30;3.35;;;;;;;;;;4997657;28;20395;-84
2022/05/11 01:47:54;;;;;;;4.53;3.13;;;;;;;;;;4995929;28;20034;-83
2022/05/11 01:50:20;;;;;;;6.20;3.25;;;;;;;;;;4996089;28;20114;-84
2022/05/11 01:52:45;;;;;;;6.90;3.25;;;;;;;;;;4997226;28;20487;-83
2022/05/11 01:55:10;;;;;;;4.47;3.30;;;;;;;;;;4997243;28;20613;-85
2022/05/11 01:57:36;;;;;;;4.15;3.30;;;;;;;;;;4997636;28;20045;-84
2022/05/11 02:00:05;;;;;;;7.22;3.13;;;;;;;;;;4997594;28;20113;-85
2022/05/11 02:02:38;;;;;;;3.85;3.30;;;;;;;;;;4981243;28;20526;-84
2022/05/11 02:07:49;;;;;;;4.80;3.05;;;;;;;;;;4997671;28;20038;-83
2022/05/11 02:10:16;;;;;;;6.47;3.60;;;;;;;;;;4998295;28;20045;-84
2022/05/11 02:12:42;;;;;;;5.45;3.20;;;;;;;;;;4980345;28;20041;-86
2022/05/11 02:15:09;;;;;;;6.63;3.40;;;;;;;;;;4998200;28;20046;-84
2022/05/11 02:17:34;;;;;;;5.03;3.55;;;;;;;;;;4997673;28;20030;-85
2022/05/11 02:20:00;;;;;;;7.72;3.35;;;;;;;;;;4998364;28;20399;-83
2022/05/11 02:22:26;;;;;;;8.20;3.33;;;;;;;;;;4999004;28;20042;-84
2022/05/11 02:24:52;;;;;;;7.10;3.25;;;;;;;;;;4997405;28;20034;-82
2022/05/11 02:27:17;;;;;;;4.63;3.28;;;;;;;;;;4997437;28;20034;-85
2022/05/11 02:29:43;;;;;;;6.13;3.40;;;;;;;;;;4965974;28;20102;-85
2022/05/11 02:32:08;;;;;;;6.47;3.53;;;;;;;;;;4999261;28;20044;-84
2022/05/11 02:37:17;;;;;;;4.32;3.50;;;;;;;;;;5002475;28;20034;-83
2022/05/11 02:39:43;;;;;;;5.30;3.20;;;;;;;;;;4996556;28;20029;-84
2022/05/11 02:42:08;;;;;;;5.40;3.20;;;;;;;;;;4994836;28;20038;-86
2022/05/11 02:44:34;;;;;;;4.95;3.55;;;;;;;;;;4996491;28;20041;-85
2022/05/11 02:46:59;;;;;;;3.90;3.30;;;;;;;;;;4996403;28;20034;-86
2022/05/11 02:49:25;;;;;;;4.97;3.80;;;;;;;;;;4980957;28;20089;-84
2022/05/11 02:51:50;;;;;;;6.13;3.40;;;;;;;;;;4998150;28;20119;-86
2022/05/11 02:54:16;;;;;;;4.85;3.22;;;;;;;;;;4980648;28;20053;-85
2022/05/11 02:56:41;;;;;;;4.82;3.30;;;;;;;;;;4998154;28;20511;-85
2022/05/11 02:59:07;;;;;;;5.63;3.58;;;;;;;;;;4998436;28;20038;-84
2022/05/11 03:01:33;;;;;;;5.85;3.33;;;;;;;;;;4998028;28;20045;-83
2022/05/11 03:03:59;;;;;;;4.07;3.22;;;;;;;;;;4997905;28;20034;-85
2022/05/11 03:06:24;;;;;;;4.38;3.38;;;;;;;;;;4980586;28;20044;-84
2022/05/11 03:08:50;;;;;;;5.32;3.80;;;;;;;;;;4980933;28;20057;-84
2022/05/11 03:11:15;;;;;;;5.93;3.45;;;;;;;;;;4998378;28;20034;-84
2022/05/11 03:13:41;;;;;;;4.57;3.70;;;;;;;;;;4997677;28;20379;-85
2022/05/11 03:16:06;;;;;;;5.03;3.45;;;;;;;;;;4997966;28;20107;-85
2022/05/11 03:18:32;;;;;;;5.40;3.60;;;;;;;;;;4998320;28;20375;-86
2022/05/11 03:20:58;;;;;;;4.43;3.25;;;;;;;;;;4998309;28;20041;-86
2022/05/11 03:23:25;;;;;;;4.85;3.53;;;;;;;;;;4980283;28;20035;-86
2022/05/11 03:25:51;;;;;;;4.75;3.30;;;;;;;;;;4997268;28;20060;-84
2022/05/11 03:28:17;;;;;;;3.65;3.13;;;;;;;;;;4981180;28;20484;-84
2022/05/11 03:30:42;;;;;;;6.20;3.50;;;;;;;;;;4997382;28;20034;-85
2022/05/11 03:35:52;;;;;;;5.53;3.38;;;;;;;;;;4998883;28;20034;-85
2022/05/11 03:38:17;;;;;;;6.30;3.55;;;;;;;;;;4996618;28;20388;-84
2022/05/11 03:40:42;;;;;;;4.85;3.40;;;;;;;;;;4978663;28;20027;-83
2022/05/11 03:43:08;;;;;;;5.78;4.00;;;;;;;;;;4997033;28;20038;-86
2022/05/11 03:45:34;;;;;;;4.90;3.70;;;;;;;;;;4995718;28;20499;-84
2022/05/11 03:48:00;;;;;;;6.07;3.70;;;;;;;;;;4995762;28;20505;-85
2022/05/11 03:50:26;;;;;;;5.43;3.53;;;;;;;;;;4995346;28;20038;-84
2022/05/11 03:52:53;;;;;;;5.45;3.38;;;;;;;;;;4977604;28;20045;-84
2022/05/11 03:55:21;;;;;;;7.45;3.60;;;;;;;;;;4993894;28;20045;-83
2022/05/11 03:57:46;;;;;;;5.97;3.63;;;;;;;;;;4995805;28;20195;-86
2022/05/11 04:00:16;;;;;;;6.22;3.60;;;;;;;;;;4996041;28;20453;-85
2022/05/11 04:02:41;;;;;;;5.70;3.80;;;;;;;;;;4978202;28;20062;-85
2022/05/11 04:05:09;;;;;;;5.15;3.70;;;;;;;;;;4995599;28;20045;-85
2022/05/11 04:07:34;;;;;;;7.28;3.60;;;;;;;;;;4979178;28;20042;-84
2022/05/11 04:10:01;;;;;;;8.48;3.67;;;;;;;;;;4996008;28;20055;-84
2022/05/11 04:12:29;;;;;;;5.60;3.70;;;;;;;;;;4978574;28;20042;-83
2022/05/11 04:14:55;;;;;;;4.97;3.55;;;;;;;;;;4996090;28;20034;-85
2022/05/11 04:17:21;;;;;;;5.00;3.50;;;;;;;;;;4996764;28;20034;-85
2022/05/11 04:19:47;;;;;;;5.47;3.50;;;;;;;;;;4996153;28;20045;-85
2022/05/11 04:22:12;;;;;;;7.55;3.67;;;;;;;;;;4997314;28;20038;-84
2022/05/11 04:24:38;;;;;;;10.60;3.63;;;;;;;;;;4979640;28;20060;-85
2022/05/11 04:27:03;;;;;;;4.70;3.47;;;;;;;;;;4998333;28;20121;-85
2022/05/11 04:29:30;;;;;;;6.05;3.40;;;;;;;;;;4999028;28;20039;-84
2022/05/11 04:31:56;;;;;;;5.00;3.42;;;;;;;;;;4999528;28;20376;-85
2022/05/11 04:34:22;;;;;;;6.53;3.50;;;;;;;;;;4996236;28;20062;-85
2022/05/11 04:36:48;;;;;;;8.68;3.65;;;;;;;;;;4995761;28;20030;-85
2022/05/11 04:39:13;;;;;;;5.38;3.38;;;;;;;;;;4978068;28;20046;-84
2022/05/11 04:41:39;;;;;;;4.40;3.33;;;;;;;;;;4977813;28;20113;-85
2022/05/11 04:44:04;;;;;;;6.03;3.40;;;;;;;;;;4978700;28;20084;-84
2022/05/11 04:46:33;;;;;;;5.22;3.78;;;;;;;;;;4995773;28;20031;-85
2022/05/11 04:49:19;;;;;;;9.13;3.90;;;;;;;;;;4978439;28;20069;-85
2022/05/11 04:51:59;;;;;;;4.00;3.50;;;;;;;;;;4990801;23;20089;-84
2022/05/11 04:54:25;;;;;;;5.53;3.75;;;;;;;;;;4978320;28;20097;-83
2022/05/11 04:56:50;;;;;;;10.63;3.78;;;;;;;;;;4979271;28;20038;-83
2022/05/11 04:59:16;;;;;;;6.53;3.40;;;;;;;;;;4979878;28;20480;-82
2022/05/11 05:01:42;;;;;;;5.75;3.60;;;;;;;;;;4979857;28;20030;-83
2022/05/11 05:04:07;;;;;;;6.30;3.50;;;;;;;;;;4981891;28;20418;-83
2022/05/11 05:06:33;;;;;;;5.57;3.38;;;;;;;;;;4965791;28;20073;-83
2022/05/11 05:09:00;;;;;;;5.07;3.40;;;;;;;;;;4982748;28;20034;-82
2022/05/11 05:11:26;;;;;;;4.00;3.17;;;;;;;;;;4966040;28;20069;-83
2022/05/11 05:13:52;;;;;;;7.30;3.50;;;;;;;;;;4983316;28;20038;-83
2022/05/11 05:16:17;;;;;;;6.72;3.22;;;;;;;;;;4983072;28;20085;-83
2022/05/11 05:18:43;;;;;;;5.05;3.40;;;;;;;;;;4982846;28;20031;-83
2022/05/11 05:21:08;;;;;;;6.88;3.25;;;;;;;;;;4983728;28;20244;-82
2022/05/11 05:23:35;;;;;;;6.07;3.00;;;;;;;;;;4982082;28;20034;-83
2022/05/11 05:26:02;;;;;;;6.47;3.28;;;;;;;;;;4982804;28;20041;-85
2022/05/11 05:31:15;;;;;;;7.18;3.20;;;;;;;;;;4982776;28;20051;-83
2022/05/11 05:33:40;;;;;;;6.85;3.97;;;;;;;;;;4982514;28;20090;-82
2022/05/11 05:36:07;;;;;;;9.35;4.85;;;;;;;;;;4982356;28;20078;-83
2022/05/11 05:38:34;;;;;;;7.55;3.92;;;;;;;;;;4965730;28;20094;-83
2022/05/11 05:41:00;;;;;;;5.75;4.20;;;;;;;;;;4982792;28;20171;-83
2022/05/11 05:43:25;;;;;;;6.50;4.00;;;;;;;;;;4981826;28;20095;-84
2022/05/11 05:45:52;;;;;;;6.47;3.67;;;;;;;;;;4964558;28;20403;-83
2022/05/11 05:48:19;;;;;;;4.43;3.33;;;;;;;;;;4964890;28;20041;-83
2022/05/11 05:50:45;;;;;;;6.93;3.55;;;;;;;;;;4981626;28;20038;-83
2022/05/11 05:53:11;;;;;;;4.00;3.20;;;;;;;;;;4981566;28;20047;-82
2022/05/11 05:55:37;;;;;;;3.97;3.30;;;;;;;;;;4963960;28;20126;-83
2022/05/11 05:58:03;;;;;;;7.88;3.72;;;;;;;;;;4981493;28;20038;-82
2022/05/11 06:00:29;;;;;;;6.82;3.30;;;;;;;;;;4981192;28;20110;-84
2022/05/11 06:02:56;;;;;;;7.45;3.30;;;;;;;;;;4983072;28;20102;-85
2022/05/11 06:05:21;;;;;;;4.45;3.10;;;;;;;;;;4983039;28;20034;-84
2022/05/11 06:07:47;;;;;;;4.20;2.80;;;;;;;;;;4983052;28;20472;-85
2022/05/11 06:10:13;;;;;;;4.78;3.25;;;;;;;;;;4981943;28;20030;-84
2022/05/11 06:12:38;;;;;;;3.30;2.80;;;;;;;;;;4963116;28;20506;-83
2022/05/11 06:15:05;;;;;;;4.65;2.95;;;;;;;;;;4963114;28;20062;-84
2022/05/11 06:17:32;;;;;;;4.35;3.00;;;;;;;;;;4963723;28;20110;-83
2022/05/11 06:19:58;;;;;;;3.53;2.88;;;;;;;;;;4980293;28;20480;-84
2022/05/11 06:22:25;;;;;;;3.95;3.03;;;;;;;;;;4980642;28;20045;-83
2022/05/11 06:24:50;;;;;;;4.07;2.92;;;;;;;;;;4979379;28;20050;-83
2022/05/11 06:27:19;;;;;;;6.53;2.83;;;;;;;;;;4980160;28;20039;-84
2022/05/11 06:29:58;;;;;;;7.30;3.13;;;;;;;;;;4962969;28;20503;-85
2022/05/11 06:32:23;;;;;;;4.38;2.85;;;;;;;;;;4981350;28;20042;-84
2022/05/11 06:34:51;;;;;;;5.00;2.80;;;;;;;;;;4980584;28;20053;-84
2022/05/11 06:37:17;;;;;;;6.75;2.90;;;;;;;;;;4981024;28;20089;-84
2022/05/11 06:39:43;;;;;;;4.53;3.03;;;;;;;;;;4963579;28;20037;-83
2022/05/11 06:42:11;;;;;;;5.28;2.70;;;;;;;;;;4980311;28;20615;-83
2022/05/11 06:44:37;;;;;;;4.25;2.70;;;;;;;;;;4979992;28;20097;-83
2022/05/11 06:47:03;;;;;;;5.40;2.78;;;;;;;;;;4979812;28;20443;-83
2022/05/11 06:49:30;;;;;;;4.03;2.75;;;;;;;;;;4980164;28;20038;-84
2022/05/11 06:51:55;;;;;;;3.00;2.58;;;;;;;;;;4978721;28;20038;-83
2022/05/11 06:59:53;;;;;;;4.38;2.58;;;;;;;;;;4981952;28;20030;-86
2022/05/11 07:02:19;;;;;;;5.63;2.95;;;;;;;;;;4981922;28;20035;-86
2022/05/11 07:04:45;;;;;;;4.15;2.78;;;;;;;;;;4983067;28;20050;-87
2022/05/11 07:07:10;;;;;;;5.10;2.67;;;;;;;;;;4984608;28;20061;-88
2022/05/11 07:09:37;;;;;;;5.97;2.72;;;;;;;;;;4980580;28;20035;-84
2022/05/11 07:12:20;;;;;;;5.18;2.63;;;;;;;;;;4978809;28;20039;-84
2022/05/11 07:14:47;;;;;;;5.80;3.28;;;;;;;;;;4979510;28;20100;-84
2022/05/11 07:17:23;;;;;;;6.28;2.78;;;;;;;;;;4979237;28;20106;-84
2022/05/11 07:19:49;;;;;;;3.15;2.70;;;;;;;;;;4979568;28;20039;-84
2022/05/11 07:22:15;;;;;;;4.18;2.70;;;;;;;;;;4979154;28;20431;-85
2022/05/11 07:24:42;;;;;;;5.05;2.50;;;;;;;;;;4978950;28;20035;-85
2022/05/11 07:27:08;;;;;;;4.10;2.63;;;;;;;;;;4978988;28;20042;-85
2022/05/11 07:29:34;;;;;;;4.45;2.60;;;;;;;;;;4978309;28;20058;-85
2022/05/11 07:31:59;;;;;;;4.47;2.70;;;;;;;;;;4962958;28;20039;-86
2022/05/11 07:34:25;;;;;;;3.42;2.67;;;;;;;;;;4979489;28;20043;-85
2022/05/11 07:36:54;;;;;;;4.18;2.80;;;;;;;;;;4978796;28;20069;-84
2022/05/11 07:39:21;;;;;;;5.07;2.45;;;;;;;;;;4979623;28;20034;-84
2022/05/11 07:41:47;;;;;;;5.22;2.70;;;;;;;;;;4961875;28;20042;-84
2022/05/11 07:44:12;;;;;;;3.40;2.58;;;;;;;;;;4979077;28;20046;-84
2022/05/11 07:46:38;;;;;;;4.00;2.72;;;;;;;;;;4979294;28;20038;-84
2022/05/11 07:49:05;;;;;;;5.75;2.67;;;;;;;;;;4978874;28;20074;-84
2022/05/11 07:51:31;;;;;;;5.20;2.60;;;;;;;;;;4979166;28;20046;-84
2022/05/11 07:53:57;;;;;;;3.92;2.60;;;;;;;;;;4961201;28;20034;-87
2022/05/11 08:01:50;;;;;;;4.15;2.42;;;;;;;;;;4979268;28;20026;-84
2022/05/11 08:04:16;;;;;;;10.18;2.65;;;;;;;;;;4978599;28;20511;-85
2022/05/11 08:06:41;;;;;;;5.78;2.38;;;;;;;;;;4979591;28;20611;-85
2022/05/11 08:09:07;;;;;;;5.60;2.80;;;;;;;;;;4979208;28;20455;-85
2022/05/11 08:11:33;;;;;;;5.60;2.40;;;;;;;;;;4979609;28;20039;-85
2022/05/11 08:13:58;;;;;;;4.95;2.63;;;;;;;;;;4979245;28;20043;-84
2022/05/11 08:16:26;;;;;;;3.75;2.30;;;;;;;;;;4961839;28;20039;-85
2022/05/11 08:18:51;;;;;;;4.22;2.42;;;;;;;;;;4979478;28;20039;-86
2022/05/11 08:21:19;;;;;;;6.18;2.75;;;;;;;;;;4977757;28;20054;-85
2022/05/11 08:23:45;;;;;;;4.75;2.55;;;;;;;;;;4979956;28;20039;-86
2022/05/11 08:26:10;;;;;;;3.25;2.38;;;;;;;;;;4978989;28;20436;-84
2022/05/11 08:28:36;;;;;;;3.83;2.30;;;;;;;;;;4979534;28;20037;-85
2022/05/11 08:33:45;;;;;;;3.88;2.10;;;;;;;;;;4977732;28;20034;-84
2022/05/11 08:36:13;;;;;;;5.60;2.10;;;;;;;;;;4978364;28;20045;-85
2022/05/11 08:38:42;;;;;;;3.38;2.20;;;;;;;;;;4978735;28;20443;-86
2022/05/11 08:41:29;;;;;;;3.42;2.20;;;;;;;;;;4964967;28;20037;-85
2022/05/11 08:44:02;;;;;;;3.35;2.10;;;;;;;;;;4982776;28;20039;-87
2022/05/11 08:46:50;;;;;;;3.40;2.15;;;;;;;;;;4981845;28;20047;-87
2022/05/11 08:49:46;;;;;;;5.97;1.90;;;;;;;;;;4983007;28;20065;-85
2022/05/11 08:52:58;;;;;;;3.72;2.20;;;;;;;;;;4981392;28;20038;-86
2022/05/11 08:55:37;;;;;;;4.88;2.30;;;;;;;;;;4887198;29;20139;-87
2022/05/11 08:58:11;;;;;;;4.30;1.90;;;;;;;;;;4980168;28;20051;-87
2022/05/11 09:00:40;;;;;;;3.28;1.95;;;;;;;;;;4985860;28;20027;-87
2022/05/11 09:03:31;;;;;;;2.60;1.80;;;;;;;;;;4986391;28;20078;-86
2022/05/11 09:06:00;;;;;;;4.45;2.10;;;;;;;;;;4984526;28;20035;-86
2022/05/11 09:08:28;;;;;;;3.28;1.92;;;;;;;;;;4982012;28;20046;-87
2022/05/11 09:10:54;;;;;;;5.72;2.30;;;;;;;;;;4979139;28;20058;-88
2022/05/11 09:13:20;;;;;;;2.97;1.90;;;;;;;;;;4978657;28;20030;-87
2022/05/11 09:15:53;;;;;;;3.38;2.20;;;;;;;;;;4964939;28;20090;-86
2022/05/11 09:18:19;;;;;;;3.92;2.10;;;;;;;;;;4978877;28;20490;-87
2022/05/11 09:20:52;;;;;;;5.65;2.25;;;;;;;;;;4983861;28;20026;-86
2022/05/11 09:24:02;;;;;;;3.10;1.90;;;;;;;;;;4983814;28;20042;-87
2022/05/11 09:26:36;;;;;;;4.68;1.80;;;;;;;;;;4946859;28;20054;-87
2022/05/11 09:29:25;;;;;;;4.47;1.80;;;;;;;;;;4967868;28;20409;-84
2022/05/11 09:31:52;;;;;;;3.05;1.80;;;;;;;;;;4982975;28;20043;-86
2022/05/11 09:34:27;;;;;;;7.75;1.80;;;;;;;;;;4979483;28;20696;-87
2022/05/11 09:37:02;;;;;;;2.63;1.70;;;;;;;;;;4979836;28;20034;-87
2022/05/11 09:39:29;;;;;;;4.05;1.90;;;;;;;;;;4988852;28;20057;-86
2022/05/11 09:42:10;;;;;;;2.80;1.83;;;;;;;;;;4971292;28;20081;-86
2022/05/11 09:44:44;;;;;;;5.30;1.90;;;;;;;;;;4986110;28;20034;-86
2022/05/11 09:47:29;;;;;;;4.18;1.70;;;;;;;;;;4983901;28;20053;-87
2022/05/11 09:50:13;;;;;;;5.28;2.00;;;;;;;;;;4982265;28;20085;-86
2022/05/11 09:52:39;;;;;;;3.95;1.92;;;;;;;;;;4982342;28;20045;-86
2022/05/11 09:55:34;;;;;;;3.72;1.88;;;;;;;;;;4982413;28;20411;-85
2022/05/11 09:58:06;;;;;;;3.80;2.17;;;;;;;;;;4966802;28;20043;-85
2022/05/11 10:00:42;;;;;;;2.15;1.60;;;;;;;;;;4981447;28;20555;-85
2022/05/11 10:03:16;;;;;;;2.60;1.80;;;;;;;;;;4982214;28;20389;-86
2022/05/11 10:05:49;;;;;;;4.07;1.80;;;;;;;;;;4964623;28;20093;-85
2022/05/11 10:08:32;;;;;;;4.28;2.10;;;;;;;;;;4981952;28;20482;-85
2022/05/11 10:11:23;;;;;;;3.40;1.83;;;;;;;;;;4981736;28;20039;-85
2022/05/11 10:14:00;;;;;;;1.92;1.60;;;;;;;;;;4981822;28;20051;-85
2022/05/11 10:22:11;;;;;;;2.58;1.63;;;;;;;;;;4982170;28;20484;-86
2022/05/11 10:24:53;;;;;;;3.55;1.80;;;;;;;;;;4982706;28;20041;-86
2022/05/11 10:27:30;;;;;;;2.70;1.60;;;;;;;;;;4965036;28;20082;-86
2022/05/11 10:30:05;;;;;;;3.03;1.65;;;;;;;;;;4982023;28;20034;-86
2022/05/11 10:32:38;;;;;;;2.33;2.00;;;;;;;;;;4982298;28;20039;-85
2022/05/11 10:35:18;;;;;;;2.78;2.00;;;;;;;;;;4981791;28;20038;-85
2022/05/11 10:38:09;;;;;;;3.80;1.80;;;;;;;;;;4982110;28;20042;-85
2022/05/11 10:40:40;;;;;;;2.85;2.00;;;;;;;;;;4980194;28;20034;-85
2022/05/11 10:43:34;;;;;;;2.47;1.80;;;;;;;;;;4981231;28;20058;-86
2022/05/11 10:46:08;;;;;;;2.17;1.60;;;;;;;;;;4981683;28;20050;-85
2022/05/11 10:49:10;;;;;;;3.15;1.80;;;;;;;;;;4979888;28;20062;-86
2022/05/11 10:51:38;;;;;;;2.30;1.88;;;;;;;;;;4964188;28;20039;-86
2022/05/11 10:54:23;;;;;;;3.45;1.88;;;;;;;;;;5000139;23;20047;-89
2022/05/11 10:57:09;;;;;;;4.88;2.00;;;;;;;;;;4958860;29;20448;-87
2022/05/11 10:59:51;;;;;;;5.03;1.80;;;;;;;;;;4974535;28;20041;-87
2022/05/11 11:02:49;;;;;;;4.28;2.15;;;;;;;;;;4960097;28;20480;-88
2022/05/11 11:05:40;;;;;;;6.10;2.17;;;;;;;;;;4958772;28;20492;-86
2022/05/11 11:08:11;;;;;;;4.40;2.00;;;;;;;;;;4957510;28;20040;-87
2022/05/11 11:10:57;;;;;;;3.55;1.90;;;;;;;;;;4957988;28;20484;-87
2022/05/11 11:13:41;;;;;;;3.08;2.03;;;;;;;;;;4957370;28;20058;-84
2022/05/11 11:16:10;;;;;;;2.63;2.00;;;;;;;;;;4960388;28;20444;-88
2022/05/11 11:18:39;;;;;;;2.15;1.70;;;;;;;;;;4959953;28;20051;-87
2022/05/11 11:21:09;;;;;;;4.50;1.80;;;;;;;;;;4960559;28;20059;-86
2022/05/11 11:23:40;;;;;;;2.50;2.08;;;;;;;;;;4960227;28;20046;-86
2022/05/11 11:26:09;;;;;;;5.38;2.13;;;;;;;;;;4960097;28;20038;-85
2022/05/11 11:28:41;;;;;;;3.50;1.90;;;;;;;;;;4943046;29;20046;-85
2022/05/11 11:31:09;;;;;;;3.33;1.85;;;;;;;;;;4959108;29;20066;-87
2022/05/11 11:34:00;;;;;;;4.75;2.00;;;;;;;;;;4960783;28;20065;-85
2022/05/11 11:36:31;;;;;;;3.17;1.90;;;;;;;;;;4958591;29;20085;-86
2022/05/11 11:39:01;;;;;;;4.25;1.80;;;;;;;;;;4958123;29;20415;-86
2022/05/11 11:42:05;;;;;;;2.53;1.85;;;;;;;;;;4959698;28;20046;-86
2022/05/11 11:44:38;;;;;;;2.80;1.80;;;;;;;;;;4960148;28;20078;-87
2022/05/11 11:47:25;;;;;;;;;;;;;;;;;;4961807;28;20507;-84
2022/05/11 11:49:52;;;;;;;4.50;2.17;;;;;;;;;;4959682;28;19918;-86
2022/05/11 11:53:03;;;;;;;2.30;1.70;;;;;;;;;;4942948;29;20412;-88
2022/05/11 11:55:32;;;;;;;3.80;1.90;;;;;;;;;;4930012;29;20047;-86
2022/05/11 11:58:13;;;;;;;3.17;1.80;;;;;;;;;;4961263;28;20046;-83
2022/05/11 12:00:48;;;;;;;3.15;1.80;;;;;;;;;;4958877;28;20039;-83
2022/05/11 12:03:19;;;;;;;2.67;1.60;;;;;;;;;;4959747;29;20066;-85
2022/05/11 12:05:47;;;;;;;3.10;1.92;;;;;;;;;;4957358;28;20039;-82
2022/05/11 12:16:54;;;;;;;3.20;1.85;;;;;;;;;;4964476;28;20042;-86
2022/05/11 12:19:21;;;;;;;3.05;2.00;;;;;;;;;;4962513;29;20049;-85
2022/05/11 12:22:02;;;;;;;2.92;1.85;;;;;;;;;;4966330;28;20074;-86
2022/05/11 12:24:48;;;;;;;5.97;1.70;;;;;;;;;;4964944;28;20031;-87
2022/05/11 12:27:24;;;;;;;2.00;1.60;;;;;;;;;;4947766;29;20066;-84
2022/05/11 12:29:57;;;;;;;2.83;1.70;;;;;;;;;;4964727;28;20514;-86
2022/05/11 12:32:35;;;;;;;2.90;1.90;;;;;;;;;;4966055;28;20110;-86
2022/05/11 12:35:27;;;;;;;3.55;1.80;;;;;;;;;;4961044;28;20043;-87
2022/05/11 12:38:24;;;;;;;2.85;1.85;;;;;;;;;;4955664;29;20055;-87
2022/05/11 12:40:51;;;;;;;3.95;1.70;;;;;;;;;;4931469;29;20519;-87
2022/05/11 12:43:34;;;;;;;2.80;1.80;;;;;;;;;;4959361;28;20032;-88
2022/05/11 12:46:08;;;;;;;;;;;;;;;;;;4961410;29;20114;-87
2022/05/11 12:48:42;;;;;;;2.70;1.52;;;;;;;;;;4962401;28;19921;-89
2022/05/11 12:51:12;;;;;;;5.65;1.75;;;;;;;;;;4964464;28;20039;-88
2022/05/11 12:53:49;;;;;;;3.63;1.75;;;;;;;;;;4960563;28;20035;-88
2022/05/11 12:56:19;;;;;;;3.42;1.95;;;;;;;;;;4962822;28;20067;-86
2022/05/11 12:58:52;;;;;;;4.35;1.70;;;;;;;;;;4960090;28;20125;-88
2022/05/11 13:01:23;;;;;;;5.22;2.05;;;;;;;;;;4959619;29;20062;-89
2022/05/11 13:03:51;;;;;;;2.88;1.90;;;;;;;;;;4959805;28;20042;-89
2022/05/11 13:06:39;;;;;;;5.47;1.80;;;;;;;;;;4965794;28;20051;-87
2022/05/11 13:09:16;;;;;;;9.68;2.00;;;;;;;;;;4961773;28;20519;-88
2022/05/11 13:11:42;;;;;;;3.03;1.90;;;;;;;;;;4960653;28;20396;-87
2022/05/11 13:14:16;;;;;;;3.55;1.80;;;;;;;;;;4957259;28;20094;-86
2022/05/11 13:16:53;;;;;;;3.15;1.85;;;;;;;;;;4960940;28;20039;-87
2022/05/11 13:19:39;;;;;;;3.58;1.73;;;;;;;;;;4960262;29;20038;-88
2022/05/11 13:22:13;;;;;;;3.90;1.90;;;;;;;;;;4959446;28;20031;-87
2022/05/11 13:24:41;;;;;;;2.30;2.00;;;;;;;;;;4958868;28;20035;-87
2022/05/11 13:27:38;;;;;;;4.47;1.80;;;;;;;;;;4959406;29;20039;-88
2022/05/11 13:30:27;;;;;;;2.75;1.92;;;;;;;;;;4959955;28;20392;-88
2022/05/11 13:32:58;;;;;;;5.75;2.00;;;;;;;;;;4950242;29;20055;-89
2022/05/11 13:35:31;;;;;;;4.28;1.88;;;;;;;;;;4957838;29;20047;-89
2022/05/11 13:38:09;;;;;;;3.15;1.88;;;;;;;;;;4958841;28;20046;-88
2022/05/11 13:40:36;;;;;;;4.88;2.05;;;;;;;;;;4958830;29;20035;-86
2022/05/11 13:43:16;;;;;;;2.92;1.70;;;;;;;;;;4959227;28;20039;-88
2022/05/11 13:46:00;;;;;;;4.05;1.77;;;;;;;;;;4960211;28;20035;-88
2022/05/11 13:48:37;;;;;;;3.55;1.98;;;;;;;;;;4958556;29;20032;-87
2022/05/11 13:51:20;;;;;;;3.17;1.90;;;;;;;;;;4958697;28;20094;-83
2022/05/11 13:53:48;;;;;;;3.60;1.80;;;;;;;;;;4956369;29;20038;-87
2022/05/11 13:56:17;;;;;;;2.58;1.80;;;;;;;;;;4957318;29;20050;-88
2022/05/11 13:58:47;;;;;;;5.15;2.03;;;;;;;;;;4957016;28;20047;-86
2022/05/11 14:01:20;;;;;;;4.00;1.90;;;;;;;;;;4972177;28;20035;-86
2022/05/11 14:03:56;;;;;;;4.27;1.87;;;;;;;;;;4957596;28;20043;-85
2022/05/11 14:06:31;;;;;;;2.70;1.77;;;;;;;;;;4957266;28;20753;-86
2022/05/11 14:08:58;;;;;;;3.10;2.10;;;;;;;;;;4954577;29;20413;-90
2022/05/11 14:11:24;;;;;;;3.28;2.05;;;;;;;;;;4965392;28;20045;-87
2022/05/11 14:13:49;;;;;;;3.40;1.70;;;;;;;;;;4959280;28;20125;-87
2022/05/11 14:16:24;;;;;;;2.60;1.90;;;;;;;;;;4976301;28;20396;-87
2022/05/11 14:18:52;;;;;;;5.22;2.03;;;;;;;;;;4977360;28;20066;-86
2022/05/11 14:21:17;;;;;;;4.13;1.90;;;;;;;;;;4976836;28;20026;-87
2022/05/11 14:23:43;;;;;;;2.90;1.85;;;;;;;;;;4976353;28;20093;-84
2022/05/11 14:26:09;;;;;;;3.33;1.73;;;;;;;;;;4977823;28;20061;-86
2022/05/11 14:28:35;;;;;;;3.83;1.95;;;;;;;;;;4978427;28;20035;-87
2022/05/11 14:31:01;;;;;;;3.88;1.88;;;;;;;;;;4978313;28;20173;-88
2022/05/11 14:33:27;;;;;;;6.63;2.00;;;;;;;;;;4978108;28;20031;-87
2022/05/11 14:35:54;;;;;;;5.97;1.95;;;;;;;;;;4975945;28;20038;-87
2022/05/11 14:38:20;;;;;;;2.80;1.63;;;;;;;;;;4976305;28;20030;-86
2022/05/11 14:40:47;;;;;;;2.97;1.85;;;;;;;;;;4977340;28;20034;-88
2022/05/11 14:43:13;;;;;;;5.25;2.10;;;;;;;;;;4976385;28;20534;-86
2022/05/11 14:45:40;;;;;;;5.97;2.10;;;;;;;;;;4976149;28;20042;-86
2022/05/11 14:48:16;;;;;;;5.68;2.08;;;;;;;;;;4977017;28;20023;-87
2022/05/11 14:50:42;;;;;;;3.08;1.90;;;;;;;;;;4976388;28;20423;-87
2022/05/11 14:53:07;;;;;;;2.35;1.75;;;;;;;;;;4958809;28;20038;-88
2022/05/11 14:55:33;;;;;;;2.97;2.13;;;;;;;;;;4974912;28;20054;-87
2022/05/11 15:03:27;;;;;;;4.50;2.10;;;;;;;;;;4976084;28;20035;-88
2022/05/11 15:05:53;;;;;;;2.55;1.90;;;;;;;;;;4976351;28;20483;-88
2022/05/11 15:08:19;;;;;;;6.18;2.10;;;;;;;;;;4976567;28;20038;-87
2022/05/11 15:10:45;;;;;;;2.28;1.80;;;;;;;;;;4975197;28;20042;-86
2022/05/11 15:15:55;;;;;;;3.45;1.83;;;;;;;;;;4976105;28;20035;-85
2022/05/11 15:18:23;;;;;;;2.63;1.73;;;;;;;;;;4978452;28;20055;-84
2022/05/11 15:20:49;;;;;;;3.08;1.70;;;;;;;;;;4980116;28;20035;-82
2022/05/11 15:23:16;;;;;;;3.03;1.90;;;;;;;;;;4982504;28;20050;-81
2022/05/11 15:25:42;;;;;;;4.65;1.80;;;;;;;;;;4964714;28;20073;-82
2022/05/11 15:28:09;;;;;;;2.20;1.70;;;;;;;;;;4984621;28;20468;-81
2022/05/11 15:30:38;;;;;;;5.00;1.83;;;;;;;;;;4982539;28;20093;-83
2022/05/11 15:33:04;;;;;;;1.95;1.70;;;;;;;;;;4982416;28;20050;-86
2022/05/11 15:35:31;;;;;;;3.15;1.80;;;;;;;;;;4981189;28;20051;-84
2022/05/11 15:37:59;;;;;;;4.90;1.75;;;;;;;;;;4981569;28;20053;-85
2022/05/11 15:40:28;;;;;;;2.35;1.70;;;;;;;;;;4981473;28;20021;-84
2022/05/11 15:42:56;;;;;;;2.40;1.75;;;;;;;;;;4976945;28;20042;-87
2022/05/11 15:45:24;;;;;;;5.07;1.92;;;;;;;;;;4977702;28;20035;-85
2022/05/11 15:47:50;;;;;;;4.15;1.90;;;;;;;;;;4980907;28;20038;-87
2022/05/11 15:50:16;;;;;;;4.82;1.70;;;;;;;;;;4978711;28;20042;-82